Time;durP1;ratioP1;P1;durP2;ratioP2;P2;SDS_P1;SDS_P2;PMS_P1;PMS_P2;Temp;Humidity;BMP_temperature;BMP_pressure;BME280_temperature;BME280_humidity;BME280_pressure;Samples;Min_cycle;Max_cycle;Signal;HPM_P1;HPM_P2
2022/07/27 00:00:48;;;;;;;11.70;10.80;;;19.70;52.60;;;;;;5049205;28;20039;-80
2022/07/27 00:03:15;;;;;;;12.10;11.40;;;19.60;52.60;;;;;;5049958;28;20050;-80
2022/07/27 00:05:41;;;;;;;12.10;11.20;;;19.60;52.50;;;;;;5051485;28;20040;-80
2022/07/27 00:08:07;;;;;;;12.00;11.20;;;19.50;52.70;;;;;;5049859;28;20028;-80
2022/07/27 00:10:34;;;;;;;11.93;11.32;;;19.60;52.80;;;;;;5033628;28;20040;-80
2022/07/27 00:13:00;;;;;;;12.02;11.23;;;19.60;52.60;;;;;;5049506;28;20029;-80
2022/07/27 00:15:26;;;;;;;12.02;11.30;;;19.70;52.80;;;;;;5049228;28;20029;-80
2022/07/27 00:17:52;;;;;;;12.52;11.73;;;19.60;52.90;;;;;;5051005;28;20029;-81
2022/07/27 00:20:19;;;;;;;11.93;11.13;;;19.60;53.60;;;;;;5050822;28;20421;-80
2022/07/27 00:22:45;;;;;;;11.70;10.93;;;19.50;53.00;;;;;;5049805;28;20029;-80
2022/07/27 00:25:11;;;;;;;12.60;11.60;;;19.50;53.20;;;;;;5049443;28;20043;-80
2022/07/27 00:27:37;;;;;;;12.27;11.57;;;19.40;53.70;;;;;;5050879;28;20025;-81
2022/07/27 00:30:04;;;;;;;12.25;11.55;;;19.40;53.60;;;;;;5051052;28;20052;-80
2022/07/27 00:32:30;;;;;;;12.18;11.27;;;19.40;54.20;;;;;;5051456;28;20384;-80
2022/07/27 00:34:56;;;;;;;12.45;11.63;;;19.40;53.90;;;;;;5050696;28;20021;-80
2022/07/27 00:37:22;;;;;;;13.15;12.35;;;19.30;54.20;;;;;;5049668;28;20399;-80
2022/07/27 00:39:48;;;;;;;12.13;11.48;;;19.10;54.80;;;;;;5050452;28;20033;-80
2022/07/27 00:42:14;;;;;;;13.38;12.57;;;19.10;55.00;;;;;;5050539;28;20056;-80
2022/07/27 00:44:40;;;;;;;13.30;12.43;;;19.10;55.10;;;;;;5038240;28;20036;-80
2022/07/27 00:47:07;;;;;;;12.68;11.98;;;19.20;54.70;;;;;;5050293;28;20029;-80
2022/07/27 00:49:33;;;;;;;13.23;12.15;;;19.30;54.40;;;;;;5050658;28;20041;-80
2022/07/27 00:51:59;;;;;;;13.13;12.23;;;19.10;54.70;;;;;;5050696;28;20033;-80
2022/07/27 00:54:25;;;;;;;12.90;11.90;;;19.00;55.30;;;;;;5049622;28;20032;-80
2022/07/27 00:56:51;;;;;;;12.63;11.93;;;19.10;55.30;;;;;;5052700;28;20029;-80
2022/07/27 00:59:17;;;;;;;13.23;12.10;;;19.20;55.50;;;;;;5053281;28;20467;-80
2022/07/27 01:01:43;;;;;;;12.98;12.10;;;19.10;55.30;;;;;;5052899;28;20052;-80
2022/07/27 01:04:09;;;;;;;13.43;12.57;;;19.10;55.30;;;;;;5036566;28;20479;-80
2022/07/27 01:06:35;;;;;;;12.40;11.70;;;19.00;55.10;;;;;;5054454;28;20036;-80
2022/07/27 01:11:46;;;;;;;11.90;11.30;;;19.00;55.40;;;;;;5059622;28;20040;-80
2022/07/27 01:14:13;;;;;;;12.60;11.32;;;19.00;55.60;;;;;;5053137;28;20032;-80
2022/07/27 01:16:39;;;;;;;12.48;11.35;;;18.90;55.90;;;;;;5053844;28;20037;-80
2022/07/27 01:19:09;;;;;;;12.32;11.52;;;18.90;55.70;;;;;;5054192;28;20036;-80
2022/07/27 01:21:35;;;;;;;11.95;11.07;;;19.10;55.70;;;;;;5054273;28;20045;-80
2022/07/27 01:24:01;;;;;;;11.88;11.18;;;18.90;55.50;;;;;;5052865;28;20028;-80
2022/07/27 01:26:28;;;;;;;12.30;11.40;;;18.80;56.00;;;;;;5053527;28;20466;-80
2022/07/27 01:28:58;;;;;;;12.48;11.57;;;18.60;56.50;;;;;;5052585;28;20037;-80
2022/07/27 01:31:24;;;;;;;12.45;11.75;;;18.60;56.50;;;;;;5052323;28;20033;-80
2022/07/27 01:33:50;;;;;;;12.55;11.75;;;18.60;56.80;;;;;;5053864;28;20037;-80
2022/07/27 01:36:16;;;;;;;13.00;12.10;;;18.70;56.70;;;;;;5053934;28;20025;-80
2022/07/27 01:38:42;;;;;;;14.20;13.32;;;18.60;56.70;;;;;;5052526;28;20036;-80
2022/07/27 01:41:09;;;;;;;14.57;13.45;;;18.60;57.00;;;;;;5053307;28;20036;-80
2022/07/27 01:43:35;;;;;;;14.63;13.63;;;18.80;56.30;;;;;;5047932;28;20037;-80
2022/07/27 01:46:01;;;;;;;14.35;13.43;;;18.90;56.50;;;;;;5045432;28;20076;-80
2022/07/27 01:48:27;;;;;;;13.85;13.15;;;18.90;56.40;;;;;;5035729;28;20040;-80
2022/07/27 01:50:53;;;;;;;14.10;13.20;;;18.90;56.00;;;;;;5053539;28;20032;-80
2022/07/27 01:53:20;;;;;;;13.93;13.10;;;18.70;56.30;;;;;;5053531;28;20021;-80
2022/07/27 01:55:46;;;;;;;13.45;12.60;;;18.80;56.60;;;;;;5035386;28;20037;-80
2022/07/27 01:58:12;;;;;;;14.23;13.07;;;18.70;56.50;;;;;;5052993;28;20037;-80
2022/07/27 02:00:39;;;;;;;13.15;12.18;;;18.70;57.00;;;;;;5052786;28;20492;-80
2022/07/27 02:03:06;;;;;;;13.45;12.70;;;18.80;56.70;;;;;;5053224;28;20045;-80
2022/07/27 02:05:32;;;;;;;14.57;13.30;;;18.80;56.10;;;;;;5053501;28;20039;-80
2022/07/27 02:07:58;;;;;;;14.23;13.32;;;18.80;56.30;;;;;;5053135;28;20033;-80
2022/07/27 02:10:24;;;;;;;13.80;12.90;;;18.70;56.40;;;;;;5051643;28;20040;-80
2022/07/27 02:12:51;;;;;;;14.27;13.27;;;18.60;57.50;;;;;;5035315;28;20037;-80
2022/07/27 02:15:20;;;;;;;14.32;13.38;;;18.60;56.90;;;;;;5034650;28;20039;-80
2022/07/27 02:17:47;;;;;;;14.70;13.68;;;18.70;56.90;;;;;;5053067;28;20028;-80
2022/07/27 02:20:15;;;;;;;14.18;13.25;;;18.80;57.20;;;;;;5053007;28;20124;-80
2022/07/27 02:22:41;;;;;;;14.55;13.40;;;18.70;56.50;;;;;;5051905;28;20025;-80
2022/07/27 02:25:08;;;;;;;13.63;12.63;;;18.80;56.90;;;;;;5051277;28;20029;-80
2022/07/27 02:27:34;;;;;;;13.43;12.63;;;18.80;56.50;;;;;;5052977;28;20025;-80
2022/07/27 02:30:00;;;;;;;13.02;12.13;;;18.50;57.10;;;;;;5051822;28;20039;-80
2022/07/27 02:32:26;;;;;;;13.70;12.60;;;18.30;57.70;;;;;;5051071;28;20040;-80
2022/07/27 02:34:52;;;;;;;12.48;11.68;;;18.20;58.10;;;;;;5051532;28;20365;-80
2022/07/27 02:37:18;;;;;;;12.68;11.80;;;18.10;58.30;;;;;;5052673;28;20032;-80
2022/07/27 02:39:45;;;;;;;12.75;11.90;;;18.10;58.70;;;;;;5035801;28;20037;-80
2022/07/27 02:42:11;;;;;;;13.43;12.68;;;18.00;58.80;;;;;;5015315;28;20503;-80
2022/07/27 02:44:37;;;;;;;12.82;12.05;;;18.10;58.70;;;;;;5045245;28;20040;-80
2022/07/27 02:47:03;;;;;;;12.13;11.32;;;18.00;58.80;;;;;;5052070;28;20503;-80
2022/07/27 02:49:29;;;;;;;13.48;12.48;;;17.90;59.10;;;;;;5052614;28;20076;-80
2022/07/27 02:51:55;;;;;;;13.15;12.35;;;17.90;60.30;;;;;;5052357;28;20044;-80
2022/07/27 02:54:23;;;;;;;13.63;12.63;;;17.90;59.90;;;;;;5034201;28;20036;-80
2022/07/27 02:56:53;;;;;;;14.00;12.68;;;17.90;59.10;;;;;;5034218;28;20037;-80
2022/07/27 02:59:20;;;;;;;13.43;12.60;;;18.00;58.90;;;;;;5035296;28;20055;-80
2022/07/27 03:01:46;;;;;;;13.40;12.40;;;17.90;59.80;;;;;;5051526;28;20064;-80
2022/07/27 03:04:12;;;;;;;12.35;11.65;;;18.00;59.20;;;;;;5052403;28;20025;-80
2022/07/27 03:06:38;;;;;;;13.43;12.20;;;18.00;59.40;;;;;;5052198;28;20033;-80
2022/07/27 03:09:04;;;;;;;12.68;11.85;;;18.10;58.60;;;;;;5050459;28;20029;-80
2022/07/27 03:11:30;;;;;;;13.18;12.35;;;18.30;58.70;;;;;;5051008;28;20044;-80
2022/07/27 03:13:57;;;;;;;12.90;12.10;;;18.20;58.80;;;;;;5052168;28;20032;-80
2022/07/27 03:16:23;;;;;;;12.40;11.68;;;18.20;58.40;;;;;;5051533;28;20029;-80
2022/07/27 03:18:49;;;;;;;18.35;17.13;;;18.20;58.40;;;;;;5051420;28;20029;-80
2022/07/27 03:21:15;;;;;;;13.57;12.77;;;18.30;59.00;;;;;;5051655;28;20134;-80
2022/07/27 03:23:41;;;;;;;14.68;13.68;;;18.20;58.80;;;;;;5051594;28;20029;-80
2022/07/27 03:26:07;;;;;;;15.00;14.20;;;18.20;59.10;;;;;;5033938;28;20033;-80
2022/07/27 03:28:33;;;;;;;24.92;23.63;;;18.00;58.70;;;;;;5050643;28;20028;-80
2022/07/27 03:30:59;;;;;;;21.05;19.83;;;17.90;59.90;;;;;;5051376;28;20040;-80
2022/07/27 03:33:25;;;;;;;18.20;17.10;;;17.70;59.60;;;;;;5049973;28;20395;-80
2022/07/27 03:35:52;;;;;;;19.58;18.38;;;17.60;59.80;;;;;;5033071;28;20033;-80
2022/07/27 03:38:18;;;;;;;20.42;18.77;;;17.80;60.30;;;;;;5035650;28;20398;-79
2022/07/27 03:40:44;;;;;;;22.13;20.85;;;17.90;59.70;;;;;;5051487;28;20518;-80
2022/07/27 03:43:10;;;;;;;18.77;17.65;;;17.80;59.30;;;;;;5050243;28;20036;-80
2022/07/27 03:45:36;;;;;;;17.80;16.48;;;17.80;59.80;;;;;;5041025;28;20052;-80
2022/07/27 03:48:02;;;;;;;18.13;17.05;;;17.80;59.80;;;;;;5050444;28;20036;-80
2022/07/27 03:50:29;;;;;;;17.15;16.13;;;17.70;59.40;;;;;;5049919;28;20271;-79
2022/07/27 03:52:55;;;;;;;16.17;14.98;;;17.50;60.80;;;;;;5050260;28;20036;-80
2022/07/27 03:55:21;;;;;;;15.27;14.40;;;17.40;61.10;;;;;;5050991;28;20031;-80
2022/07/27 03:57:47;;;;;;;14.32;13.52;;;17.40;60.50;;;;;;5049962;28;20032;-80
2022/07/27 04:00:14;;;;;;;14.75;13.75;;;17.30;61.00;;;;;;5050660;28;20052;-80
2022/07/27 04:02:40;;;;;;;13.85;13.07;;;17.30;61.50;;;;;;5049726;28;20041;-80
2022/07/27 04:05:07;;;;;;;15.55;14.43;;;17.30;61.20;;;;;;5051103;28;20391;-80
2022/07/27 04:07:33;;;;;;;15.43;14.40;;;17.20;61.10;;;;;;5051018;28;20025;-80
2022/07/27 04:09:59;;;;;;;16.38;14.75;;;17.00;62.10;;;;;;5050976;28;20028;-80
2022/07/27 04:12:26;;;;;;;14.73;13.93;;;17.00;62.10;;;;;;5049587;28;20032;-80
2022/07/27 04:14:52;;;;;;;14.73;13.73;;;17.00;64.30;;;;;;5048016;28;20463;-80
2022/07/27 04:17:18;;;;;;;15.20;14.27;;;17.10;62.00;;;;;;5050621;28;20033;-80
2022/07/27 04:19:44;;;;;;;14.65;13.75;;;17.00;62.50;;;;;;5050533;28;20037;-80
2022/07/27 04:22:10;;;;;;;14.95;13.95;;;17.00;62.10;;;;;;5050801;28;20045;-80
2022/07/27 04:24:36;;;;;;;15.02;14.13;;;16.90;62.50;;;;;;5049765;28;20032;-80
2022/07/27 04:27:02;;;;;;;14.85;13.85;;;16.80;62.60;;;;;;5051060;28;20033;-80
2022/07/27 04:29:28;;;;;;;15.10;14.00;;;16.90;62.70;;;;;;5050747;28;20037;-80
2022/07/27 04:31:54;;;;;;;16.13;15.02;;;17.00;62.10;;;;;;5053141;28;20487;-80
2022/07/27 04:34:20;;;;;;;15.73;14.60;;;17.00;62.20;;;;;;5054324;28;20025;-79
2022/07/27 04:36:48;;;;;;;15.63;14.73;;;16.90;62.70;;;;;;5053691;28;20434;-80
2022/07/27 04:39:15;;;;;;;15.68;14.48;;;16.80;62.10;;;;;;5054855;28;20032;-80
2022/07/27 04:41:41;;;;;;;16.52;15.43;;;16.80;62.70;;;;;;5054789;28;20403;-79
2022/07/27 04:44:07;;;;;;;15.75;14.85;;;16.70;63.00;;;;;;5045832;28;20026;-80
2022/07/27 04:46:33;;;;;;;15.38;14.40;;;16.80;62.60;;;;;;5051024;28;20418;-80
2022/07/27 04:48:59;;;;;;;16.35;15.27;;;16.80;63.10;;;;;;5054380;28;20329;-80
2022/07/27 04:51:25;;;;;;;15.77;14.43;;;17.00;62.40;;;;;;5054725;28;20387;-80
2022/07/27 04:53:51;;;;;;;14.80;14.00;;;16.90;61.90;;;;;;5054538;28;20033;-80
2022/07/27 04:56:18;;;;;;;16.08;14.90;;;16.70;62.60;;;;;;5053422;28;20029;-80
2022/07/27 04:58:44;;;;;;;15.25;14.30;;;16.50;63.50;;;;;;5053505;28;20025;-80
2022/07/27 05:01:11;;;;;;;15.90;15.00;;;16.40;63.30;;;;;;5054055;28;20045;-80
2022/07/27 05:03:39;;;;;;;15.38;14.48;;;16.20;64.30;;;;;;5053189;28;20025;-79
2022/07/27 05:06:05;;;;;;;17.20;16.10;;;16.20;64.30;;;;;;5053454;28;20036;-80
2022/07/27 05:08:32;;;;;;;16.50;15.40;;;16.20;65.30;;;;;;5053515;28;20040;-80
2022/07/27 05:10:58;;;;;;;17.73;16.73;;;16.30;63.90;;;;;;5053423;28;20033;-79
2022/07/27 05:13:24;;;;;;;17.73;16.45;;;16.40;64.50;;;;;;5054225;28;20029;-79
2022/07/27 05:15:50;;;;;;;17.05;16.05;;;16.40;63.80;;;;;;5052681;28;20483;-79
2022/07/27 05:18:17;;;;;;;15.43;14.55;;;16.40;63.50;;;;;;5054417;28;20025;-81
2022/07/27 05:20:43;;;;;;;15.13;14.23;;;16.30;63.80;;;;;;5053832;28;20032;-82
2022/07/27 05:23:10;;;;;;;19.75;18.45;;;16.30;64.70;;;;;;5053993;28;20032;-80
2022/07/27 05:25:36;;;;;;;14.30;13.50;;;16.50;64.40;;;;;;5053048;28;20032;-80
2022/07/27 05:28:02;;;;;;;15.55;14.63;;;16.70;63.80;;;;;;5053914;28;20041;-80
2022/07/27 05:30:28;;;;;;;17.05;15.90;;;16.90;62.90;;;;;;5052058;28;20048;-80
2022/07/27 05:32:54;;;;;;;13.98;13.07;;;16.90;61.70;;;;;;5053721;28;20029;-79
2022/07/27 05:35:21;;;;;;;12.68;11.88;;;17.00;62.00;;;;;;5052548;28;20471;-80
2022/07/27 05:37:47;;;;;;;14.20;13.18;;;17.00;61.70;;;;;;5054193;28;20036;-80
2022/07/27 05:40:13;;;;;;;14.43;13.38;;;17.30;61.70;;;;;;5052560;28;20040;-80
2022/07/27 05:42:45;;;;;;;13.65;12.75;;;17.50;60.50;;;;;;5053853;28;20379;-80
2022/07/27 05:45:11;;;;;;;13.68;12.75;;;17.70;60.10;;;;;;5041863;28;20067;-80
2022/07/27 05:47:38;;;;;;;12.50;11.77;;;17.80;59.20;;;;;;5053373;28;20036;-80
2022/07/27 05:50:05;;;;;;;13.98;13.05;;;17.80;59.10;;;;;;5053769;28;20047;-80
2022/07/27 05:52:31;;;;;;;13.30;12.43;;;17.90;58.70;;;;;;5052416;28;20032;-81
2022/07/27 05:54:57;;;;;;;14.07;12.93;;;18.00;58.80;;;;;;5053516;28;20040;-80
2022/07/27 05:57:23;;;;;;;14.27;13.18;;;18.20;58.50;;;;;;5054111;28;20024;-80
2022/07/27 05:59:53;;;;;;;15.13;14.23;;;18.40;58.70;;;;;;5053272;28;20084;-80
2022/07/27 06:02:20;;;;;;;15.98;14.85;;;18.60;57.60;;;;;;5052501;28;20052;-81
2022/07/27 06:04:46;;;;;;;15.52;14.45;;;18.70;57.20;;;;;;5051272;28;20025;-81
2022/07/27 06:09:57;;;;;;;15.10;14.00;;;18.90;56.40;;;;;;5054104;28;20043;-81
2022/07/27 06:12:23;;;;;;;15.88;14.85;;;19.10;55.80;;;;;;5053353;28;20029;-81
2022/07/27 06:14:49;;;;;;;16.58;15.57;;;19.20;55.90;;;;;;5053033;28;20029;-81
2022/07/27 06:17:15;;;;;;;16.75;15.88;;;19.30;55.20;;;;;;5052446;28;20029;-81
2022/07/27 06:19:41;;;;;;;17.48;16.10;;;19.30;55.70;;;;;;5053321;28;20037;-81
2022/07/27 06:22:07;;;;;;;18.67;17.58;;;19.30;54.90;;;;;;5051720;28;20476;-81
2022/07/27 06:24:33;;;;;;;19.00;17.70;;;19.40;55.40;;;;;;5053067;28;20032;-81
2022/07/27 06:26:59;;;;;;;18.80;17.45;;;19.70;54.50;;;;;;5051901;28;20033;-81
2022/07/27 06:29:26;;;;;;;19.70;18.52;;;19.70;54.10;;;;;;5053024;28;20470;-82
2022/07/27 06:31:52;;;;;;;17.95;16.55;;;19.70;54.60;;;;;;5050212;28;20028;-81
2022/07/27 06:34:18;;;;;;;18.20;16.90;;;19.80;54.10;;;;;;5034627;28;20044;-81
2022/07/27 06:36:44;;;;;;;18.95;17.63;;;19.80;54.40;;;;;;5051497;28;20033;-81
2022/07/27 06:39:13;;;;;;;16.75;15.75;;;20.00;53.50;;;;;;5041231;28;20038;-81
2022/07/27 06:41:39;;;;;;;17.85;16.65;;;19.90;53.70;;;;;;5031506;28;20052;-81
2022/07/27 06:44:05;;;;;;;18.27;17.27;;;20.00;53.50;;;;;;5041324;28;20021;-81
2022/07/27 06:46:31;;;;;;;18.58;17.38;;;20.00;53.90;;;;;;5050436;28;20515;-81
2022/07/27 06:48:57;;;;;;;18.95;17.65;;;20.20;53.70;;;;;;5051403;28;20040;-81
2022/07/27 06:51:23;;;;;;;18.15;17.05;;;20.30;53.00;;;;;;5034825;28;20483;-81
2022/07/27 06:53:53;;;;;;;17.77;16.77;;;20.10;53.60;;;;;;5051508;28;20487;-81
2022/07/27 06:56:20;;;;;;;19.23;17.75;;;20.20;53.50;;;;;;5051173;28;20045;-81
2022/07/27 06:58:46;;;;;;;18.33;16.98;;;20.30;53.40;;;;;;5051195;28;20037;-81
2022/07/27 07:01:13;;;;;;;18.02;16.83;;;20.40;53.60;;;;;;5051253;28;20033;-81
2022/07/27 07:03:39;;;;;;;17.73;16.55;;;20.50;53.40;;;;;;5034622;28;20025;-81
2022/07/27 07:06:05;;;;;;;18.17;17.13;;;20.50;53.40;;;;;;5052299;28;20051;-82
2022/07/27 07:08:31;;;;;;;19.95;18.75;;;20.60;53.50;;;;;;5052114;28;20025;-82
2022/07/27 07:10:58;;;;;;;19.45;18.25;;;20.70;53.00;;;;;;5052033;28;20025;-81
2022/07/27 07:13:24;;;;;;;21.13;19.67;;;20.80;53.20;;;;;;5052213;28;20029;-82
2022/07/27 07:15:50;;;;;;;22.58;21.35;;;20.90;52.90;;;;;;5051033;28;20021;-82
2022/07/27 07:18:16;;;;;;;25.13;23.30;;;21.20;52.50;;;;;;5052008;28;20032;-82
2022/07/27 07:20:42;;;;;;;25.02;23.67;;;21.40;52.20;;;;;;5050524;28;20048;-82
2022/07/27 07:23:08;;;;;;;25.88;24.38;;;21.50;51.80;;;;;;5050124;28;20033;-82
2022/07/27 07:25:34;;;;;;;27.23;25.50;;;21.60;51.90;;;;;;5051785;28;20029;-81
2022/07/27 07:28:01;;;;;;;28.15;26.20;;;21.70;51.30;;;;;;5051753;28;20028;-82
2022/07/27 07:30:27;;;;;;;23.30;22.05;;;21.90;51.50;;;;;;5051189;28;20435;-82
2022/07/27 07:32:53;;;;;;;22.05;20.55;;;22.10;50.70;;;;;;5050615;28;20383;-81
2022/07/27 07:35:19;;;;;;;23.75;22.15;;;22.20;50.70;;;;;;5037505;28;20037;-82
2022/07/27 07:37:45;;;;;;;22.42;20.80;;;22.40;51.20;;;;;;5030574;28;20052;-82
2022/07/27 07:40:11;;;;;;;23.27;21.63;;;22.70;49.90;;;;;;5051616;28;20052;-81
2022/07/27 07:42:58;;;;;;;23.33;21.88;;;22.90;50.10;;;;;;5051387;28;20060;-82
2022/07/27 07:45:25;;;;;;;23.35;21.90;;;23.10;49.20;;;;;;5038257;28;20044;-82
2022/07/27 07:47:51;;;;;;;23.30;22.00;;;23.00;49.30;;;;;;5051530;28;20338;-82
2022/07/27 07:50:17;;;;;;;21.75;20.20;;;23.10;49.30;;;;;;5051325;28;20040;-82
2022/07/27 07:52:49;;;;;;;22.27;20.98;;;23.00;49.10;;;;;;5033748;28;20084;-82
2022/07/27 07:55:16;;;;;;;22.17;20.88;;;22.90;49.10;;;;;;5050042;28;20033;-82
2022/07/27 07:57:43;;;;;;;21.70;20.50;;;23.00;49.20;;;;;;5049738;28;20041;-82
2022/07/27 08:00:09;;;;;;;24.00;22.38;;;23.10;49.00;;;;;;5049877;28;20025;-82
2022/07/27 08:02:45;;;;;;;23.00;21.77;;;23.10;48.90;;;;;;5049822;28;20033;-82
2022/07/27 08:05:11;;;;;;;21.95;20.52;;;23.10;48.10;;;;;;5050992;28;20032;-82
2022/07/27 08:07:37;;;;;;;24.67;23.38;;;23.20;48.20;;;;;;5051344;28;20029;-82
2022/07/27 08:10:05;;;;;;;24.95;23.52;;;23.30;47.70;;;;;;5050088;28;20029;-82
2022/07/27 08:12:31;;;;;;;28.00;26.42;;;23.50;47.10;;;;;;5050773;28;20025;-83
2022/07/27 08:14:57;;;;;;;27.10;25.60;;;23.80;45.80;;;;;;5049960;28;20025;-82
2022/07/27 08:17:23;;;;;;;32.45;30.52;;;23.60;45.70;;;;;;5050547;28;20043;-82
2022/07/27 08:19:49;;;;;;;35.25;33.45;;;23.60;45.30;;;;;;5051027;28;20418;-82
2022/07/27 08:22:15;;;;;;;31.95;30.10;;;23.60;44.70;;;;;;5049654;28;20043;-83
2022/07/27 08:24:41;;;;;;;33.92;32.17;;;23.60;45.00;;;;;;5051316;28;20044;-82
2022/07/27 08:27:07;;;;;;;34.45;32.75;;;23.60;44.80;;;;;;5049439;28;20029;-83
2022/07/27 08:29:33;;;;;;;34.78;32.83;;;23.80;44.30;;;;;;5050987;28;20021;-83
2022/07/27 08:31:59;;;;;;;32.30;30.55;;;23.90;43.60;;;;;;5050502;28;20048;-82
2022/07/27 08:34:25;;;;;;;36.03;33.92;;;23.60;44.80;;;;;;5050820;28;20021;-82
2022/07/27 08:36:52;;;;;;;36.10;34.10;;;23.80;46.20;;;;;;5033623;28;20051;-83
2022/07/27 08:39:18;;;;;;;34.88;33.13;;;24.10;44.60;;;;;;5050540;28;20029;-83
2022/07/27 08:41:44;;;;;;;33.67;31.77;;;24.20;43.70;;;;;;5049315;28;20044;-83
2022/07/27 08:44:11;;;;;;;34.05;32.20;;;24.40;44.00;;;;;;5040389;28;20037;-83
2022/07/27 08:46:39;;;;;;;31.13;29.48;;;24.50;43.00;;;;;;5014861;28;20502;-83
2022/07/27 08:49:06;;;;;;;35.67;33.88;;;24.30;43.50;;;;;;5049441;28;20040;-83
2022/07/27 08:51:33;;;;;;;36.67;34.88;;;24.50;43.30;;;;;;5049495;28;20025;-82
2022/07/27 08:53:59;;;;;;;36.00;33.97;;;24.60;43.20;;;;;;5050948;28;20036;-83
2022/07/27 08:56:26;;;;;;;39.28;36.92;;;24.60;43.10;;;;;;5049338;28;20044;-82
2022/07/27 08:58:52;;;;;;;39.35;37.20;;;24.80;43.20;;;;;;5049040;28;20044;-82
2022/07/27 09:01:18;;;;;;;39.17;37.22;;;25.10;41.80;;;;;;5049944;28;20029;-83
2022/07/27 09:03:44;;;;;;;41.58;39.05;;;24.90;41.40;;;;;;5049098;28;20025;-83
2022/07/27 09:06:10;;;;;;;39.38;37.20;;;25.10;41.70;;;;;;5049405;28;20033;-83
2022/07/27 09:08:40;;;;;;;40.65;38.45;;;25.10;41.80;;;;;;5048846;28;20475;-83
2022/07/27 09:11:14;;;;;;;38.55;36.38;;;25.30;41.80;;;;;;5049874;28;20044;-83
2022/07/27 09:13:40;;;;;;;39.30;36.80;;;25.30;40.90;;;;;;5048897;28;20369;-83
2022/07/27 09:16:07;;;;;;;1999.90;999.90;;;25.70;41.70;;;;;;5050614;28;20040;-83
2022/07/27 09:18:36;;;;;;;37.35;35.42;;;26.00;39.20;;;;;;5052760;28;20036;-83
2022/07/27 09:21:21;;;;;;;36.83;34.83;;;25.90;39.60;;;;;;5054075;28;20036;-83
2022/07/27 09:24:03;;;;;;;39.40;37.42;;;25.80;39.40;;;;;;5053943;28;20040;-83
2022/07/27 09:26:29;;;;;;;1999.90;999.90;;;26.00;40.00;;;;;;5035980;28;20037;-83
2022/07/27 09:28:57;;;;;;;37.33;35.40;;;26.40;39.60;;;;;;5052531;28;20033;-83
2022/07/27 09:31:24;;;;;;;38.25;36.33;;;26.40;38.10;;;;;;5053611;28;20033;-83
2022/07/27 09:33:53;;;;;;;40.63;38.33;;;26.10;38.80;;;;;;5052086;28;20029;-83
2022/07/27 09:36:21;;;;;;;1999.90;999.90;;;26.10;38.20;;;;;;5052377;28;20025;-83
2022/07/27 09:39:05;;;;;;;1999.90;999.90;;;26.40;38.40;;;;;;5045011;28;20037;-83
2022/07/27 09:41:41;;;;;;;1999.90;999.90;;;26.60;37.30;;;;;;5017106;28;20401;-82
2022/07/27 09:44:07;;;;;;;1999.90;999.90;;;26.40;38.50;;;;;;5021415;28;20479;-83
2022/07/27 09:46:35;;;;;;;1999.90;999.90;;;26.70;37.70;;;;;;5049546;28;20052;-83
2022/07/27 09:49:02;;;;;;;1999.90;999.90;;;26.70;37.40;;;;;;5053178;28;20032;-84
2022/07/27 09:51:28;;;;;;;1999.90;999.90;;;26.90;36.80;;;;;;5053463;28;20021;-84
2022/07/27 09:53:55;;;;;;;36.40;34.63;;;26.60;37.40;;;;;;5051952;28;20490;-84
2022/07/27 09:56:26;;;;;;;1999.90;999.90;;;26.40;37.40;;;;;;5052156;28;20021;-84
2022/07/27 09:58:59;;;;;;;1999.90;999.90;;;26.30;37.50;;;;;;5053976;28;20045;-83
2022/07/27 10:01:27;;;;;;;1999.90;999.90;;;26.20;37.20;;;;;;5053315;28;20483;-84
2022/07/27 10:03:56;;;;;;;1999.90;999.90;;;26.20;36.80;;;;;;5052804;28;20052;-84
2022/07/27 10:06:22;;;;;;;1999.90;999.90;;;26.40;36.60;;;;;;5053887;28;20021;-84
2022/07/27 10:08:50;;;;;;;1999.90;999.90;;;26.60;37.00;;;;;;5053115;28;20036;-84
2022/07/27 10:11:16;;;;;;;1999.90;999.90;;;26.50;36.10;;;;;;5051743;28;20048;-84
2022/07/27 10:13:42;;;;;;;1999.90;999.90;;;26.40;37.10;;;;;;5051496;28;20036;-84
2022/07/27 10:16:19;;;;;;;1999.90;999.90;;;26.30;36.70;;;;;;5052598;28;20048;-84
2022/07/27 10:18:55;;;;;;;1999.90;999.90;;;26.30;36.40;;;;;;5051697;28;20025;-84
2022/07/27 10:21:22;;;;;;;1999.90;999.90;;;26.50;37.30;;;;;;5051559;28;20028;-84
2022/07/27 10:24:01;;;;;;;1999.90;999.90;;;27.00;37.10;;;;;;5052219;28;20506;-84
2022/07/27 10:26:33;;;;;;;1999.90;999.90;;;27.60;35.90;;;;;;5051233;28;20127;-84
2022/07/27 10:29:04;;;;;;;1999.90;999.90;;;28.00;35.10;;;;;;5051393;28;20024;-84
2022/07/27 10:31:33;;;;;;;1999.90;999.90;;;28.20;33.10;;;;;;5052218;28;20385;-84
2022/07/27 10:34:01;;;;;;;1999.90;999.90;;;28.10;33.30;;;;;;5051228;28;20348;-84
2022/07/27 10:36:30;;;;;;;1999.90;999.90;;;28.00;33.10;;;;;;5034463;28;20041;-83
2022/07/27 10:39:05;;;;;;;1999.90;999.90;;;27.80;33.40;;;;;;5052547;28;20025;-84
2022/07/27 10:41:33;;;;;;;1999.90;999.90;;;27.60;34.40;;;;;;5052297;28;20029;-83
2022/07/27 10:44:19;;;;;;;1999.90;999.90;;;27.60;33.40;;;;;;5044521;28;20021;-84
2022/07/27 10:46:53;;;;;;;1999.90;999.90;;;27.60;33.30;;;;;;5051549;28;20045;-83
2022/07/27 10:49:23;;;;;;;1999.90;999.90;;;27.30;34.20;;;;;;5050879;28;20516;-84
2022/07/27 10:51:49;;;;;;;1999.90;999.90;;;27.30;34.30;;;;;;5051792;28;20052;-84
2022/07/27 10:54:24;;;;;;;1999.90;999.90;;;27.10;33.70;;;;;;5034172;28;20029;-83
2022/07/27 10:56:50;;;;;;;1999.90;999.90;;;26.70;34.70;;;;;;5051016;28;20017;-83
2022/07/27 10:59:43;;;;;;;1999.90;999.90;;;26.70;34.60;;;;;;5050830;28;20032;-83
2022/07/27 11:02:13;;;;;;;1999.90;999.90;;;26.70;34.30;;;;;;5050408;28;20059;-83
2022/07/27 11:04:49;;;;;;;1999.90;999.90;;;27.00;34.60;;;;;;5050865;28;20021;-83
2022/07/27 11:07:19;;;;;;;1999.90;999.90;;;27.40;34.50;;;;;;5051449;28;20036;-83
2022/07/27 11:09:47;;;;;;;1999.90;999.90;;;27.60;33.90;;;;;;5049734;28;20045;-83
2022/07/27 11:12:14;;;;;;;1999.90;999.90;;;27.80;33.90;;;;;;5050308;28;20044;-83
2022/07/27 11:14:50;;;;;;;1999.90;999.90;;;28.00;33.20;;;;;;5050426;28;20033;-83
2022/07/27 11:17:17;;;;;;;1999.90;999.90;;;28.20;32.90;;;;;;5051298;28;20033;-83
2022/07/27 11:19:43;;;;;;;1999.90;999.90;;;28.50;32.70;;;;;;5051651;28;20020;-82
2022/07/27 11:22:10;;;;;;;1999.90;999.90;;;28.60;31.80;;;;;;5049936;28;20037;-83
2022/07/27 11:24:36;;;;;;;1999.90;999.90;;;28.50;30.90;;;;;;5050249;28;20029;-83
2022/07/27 11:27:03;;;;;;;1999.90;999.90;;;28.60;31.60;;;;;;5051814;28;20033;-83
2022/07/27 11:29:33;;;;;;;1999.90;999.90;;;28.80;31.90;;;;;;5051340;28;20406;-83
2022/07/27 11:31:59;;;;;;;1999.90;999.90;;;28.80;29.90;;;;;;5051013;28;20029;-83
2022/07/27 11:34:27;;;;;;;1999.90;999.90;;;28.50;30.40;;;;;;5049233;28;20048;-83
2022/07/27 11:36:54;;;;;;;1999.90;999.90;;;28.50;32.00;;;;;;5050049;28;20096;-82
2022/07/27 11:39:24;;;;;;;1999.90;999.90;;;28.80;30.10;;;;;;5036767;28;20044;-83
2022/07/27 11:41:55;;;;;;;1999.90;999.90;;;28.80;30.70;;;;;;5013939;28;20048;-83
2022/07/27 11:44:21;;;;;;;1999.90;999.90;;;28.50;30.70;;;;;;5021062;28;20029;-83
2022/07/27 11:46:48;;;;;;;1999.90;999.90;;;28.40;32.00;;;;;;5050032;28;20059;-83
2022/07/27 11:49:16;;;;;;;1999.90;999.90;;;28.20;31.80;;;;;;5049439;28;20021;-83
2022/07/27 11:51:47;;;;;;;1999.90;999.90;;;28.10;31.90;;;;;;5049687;28;20032;-83
2022/07/27 11:54:37;;;;;;;1999.90;999.90;;;27.80;32.20;;;;;;5050991;28;20036;-82
2022/07/27 11:57:05;;;;;;;1999.90;999.90;;;27.50;32.70;;;;;;5051374;28;20040;-83
2022/07/27 11:59:44;;;;;;;1999.90;999.90;;;27.40;32.70;;;;;;5049678;28;20475;-82
2022/07/27 12:02:12;;;;;;;1999.90;999.90;;;27.30;33.20;;;;;;5050419;28;20402;-83
2022/07/27 12:04:40;;;;;;;1999.90;999.90;;;27.60;33.90;;;;;;5049463;28;20562;-82
2022/07/27 12:07:30;;;;;;;1999.90;999.90;;;27.90;33.40;;;;;;5049688;28;20024;-83
2022/07/27 12:09:57;;;;;;;1999.90;999.90;;;28.40;33.00;;;;;;5047258;28;20062;-83
2022/07/27 12:12:24;;;;;;;1999.90;999.90;;;28.80;31.20;;;;;;5049623;28;20472;-83
2022/07/27 12:15:00;;;;;;;1999.90;999.90;;;28.50;32.00;;;;;;5050642;28;20017;-83
2022/07/27 12:17:31;;;;;;;1999.90;999.90;;;28.40;31.70;;;;;;5050131;28;20048;-83
2022/07/27 12:20:13;;;;;;;1999.90;999.90;;;28.50;31.60;;;;;;5049301;28;20044;-83
2022/07/27 12:22:42;;;;;;;1999.90;999.90;;;28.30;31.10;;;;;;5049155;28;20040;-82
2022/07/27 12:25:17;;;;;;;1999.90;999.90;;;27.90;31.90;;;;;;5050345;28;20044;-83
2022/07/27 12:27:58;;;;;;;1999.90;999.90;;;27.70;32.10;;;;;;5050559;28;20044;-82